createdAt,value
2022-08-16T00:00:04.590Z,49.62
2022-08-16T00:02:11.948Z,49.84
2022-08-16T00:04:17.998Z,52.27
2022-08-16T00:06:24.585Z,52.98
2022-08-16T00:08:36.494Z,54.18
2022-08-16T00:10:42.474Z,54.20
2022-08-16T00:12:48.334Z,54.93
2022-08-16T00:14:58.673Z,55.24
2022-08-16T00:17:18.934Z,56.48
2022-08-16T00:19:28.566Z,57.12
2022-08-16T00:21:53.136Z,58.22
2022-08-16T00:24:04.858Z,58.58
2022-08-16T00:26:35.447Z,58.87
2022-08-16T00:28:35.136Z,59.13
2022-08-16T00:30:43.335Z,59.20
2022-08-16T00:32:52.635Z,58.89
2022-08-16T00:35:02.021Z,59.75
2022-08-16T00:37:07.133Z,60.26
2022-08-16T00:39:15.410Z,61.03
2022-08-16T00:41:21.097Z,61.67
2022-08-16T00:43:43.229Z,61.66
2022-08-16T00:46:00.360Z,62.12
2022-08-16T00:48:30.651Z,61.83
2022-08-16T00:50:36.840Z,62.18
2022-08-16T00:52:50.553Z,61.84
2022-08-16T00:54:56.490Z,62.65
2022-08-16T00:57:04.486Z,62.81
2022-08-16T00:59:15.216Z,63.32
2022-08-16T01:01:23.941Z,62.90
2022-08-16T01:03:34.954Z,63.47
2022-08-16T01:05:41.229Z,64.74
2022-08-16T01:07:50.718Z,64.34
2022-08-16T01:09:57.941Z,64.44
2022-08-16T01:12:08.476Z,64.48
2022-08-16T01:14:20.315Z,64.50
2022-08-16T01:16:34.907Z,64.80
2022-08-16T01:18:44.237Z,64.71
2022-08-16T01:20:56.067Z,64.81
2022-08-16T01:23:08.682Z,64.69
2022-08-16T01:25:22.092Z,64.69
2022-08-16T01:27:34.746Z,64.91
2022-08-16T01:29:56.949Z,64.52
2022-08-16T01:32:04.095Z,64.67
2022-08-16T01:34:22.646Z,64.71
2022-08-16T01:36:30.553Z,64.83
2022-08-16T01:38:39.094Z,64.79
2022-08-16T01:40:47.596Z,64.73
2022-08-16T01:42:53.991Z,64.80
2022-08-16T01:45:00.780Z,64.81
2022-08-16T01:47:06.170Z,64.40
2022-08-16T01:49:14.934Z,64.49
2022-08-16T01:51:23.997Z,64.58
2022-08-16T01:53:30.870Z,64.78
2022-08-16T01:55:54.143Z,64.41
2022-08-16T01:58:00.622Z,64.09
2022-08-16T02:00:10.502Z,64.44
2022-08-16T02:02:26.748Z,64.26
2022-08-16T02:04:49.115Z,64.05
2022-08-16T02:07:03.938Z,64.04
2022-08-16T02:09:12.826Z,64.18
2022-08-16T02:11:21.531Z,64.03
2022-08-16T02:13:27.924Z,63.94
2022-08-16T02:15:42.317Z,63.87
2022-08-16T02:17:48.955Z,63.82
2022-08-16T02:20:00.159Z,64.19
2022-08-16T02:22:08.688Z,63.73
2022-08-16T02:24:32.900Z,63.78
2022-08-16T02:26:48.974Z,64.27
2022-08-16T02:28:55.272Z,64.41
2022-08-16T02:31:05.194Z,64.96
2022-08-16T02:33:11.822Z,65.41
2022-08-16T02:35:17.324Z,65.32
2022-08-16T02:37:39.702Z,65.24
2022-08-16T02:39:54.031Z,65.61
2022-08-16T02:42:02.381Z,65.26
2022-08-16T02:44:08.725Z,65.47
2022-08-16T02:46:14.085Z,65.40
2022-08-16T02:48:29.351Z,65.09
2022-08-16T02:50:55.124Z,65.26
2022-08-16T02:53:01.030Z,65.51
2022-08-16T02:55:09.327Z,65.90
2022-08-16T02:57:16.998Z,66.03
2022-08-16T02:59:23.436Z,65.83
2022-08-16T03:01:37.145Z,66.21
2022-08-16T03:04:40.734Z,66.96
2022-08-16T03:06:36.411Z,66.95
2022-08-16T03:08:56.105Z,67.21
2022-08-16T03:11:03.353Z,67.09
2022-08-16T03:13:12.886Z,67.17
2022-08-16T03:15:20.984Z,67.10
2022-08-16T03:17:32.214Z,67.13
2022-08-16T03:19:48.627Z,66.93
2022-08-16T03:22:05.538Z,67.08
2022-08-16T03:24:29.260Z,66.95
2022-08-16T03:26:35.989Z,66.44
2022-08-16T03:28:44.509Z,66.72
2022-08-16T03:30:52.015Z,66.64
2022-08-16T03:33:01.020Z,66.29
2022-08-16T03:35:12.232Z,66.55
2022-08-16T03:37:17.270Z,66.78
2022-08-16T03:39:22.396Z,66.34
2022-08-16T03:41:29.602Z,66.64
2022-08-16T03:43:54.828Z,67.13
2022-08-16T03:46:04.304Z,67.38
2022-08-16T03:48:15.134Z,67.11
2022-08-16T03:50:25.952Z,67.50
2022-08-16T03:52:32.740Z,67.71
2022-08-16T03:54:40.086Z,67.57
2022-08-16T03:56:59.292Z,67.89
2022-08-16T03:59:09.438Z,67.98
2022-08-16T04:01:29.423Z,67.60
2022-08-16T04:03:35.607Z,67.82
2022-08-16T04:05:44.471Z,67.58
2022-08-16T04:07:53.018Z,67.75
2022-08-16T04:09:59.182Z,68.09
2022-08-16T04:12:04.248Z,67.99
2022-08-16T04:14:33.408Z,67.72
2022-08-16T04:16:41.499Z,67.86
2022-08-16T04:19:05.616Z,68.34
2022-08-16T04:21:11.502Z,68.22
2022-08-16T04:23:16.685Z,68.49
2022-08-16T04:25:23.717Z,68.93
2022-08-16T04:27:29.003Z,69.03
2022-08-16T04:29:44.142Z,68.78
2022-08-16T04:31:56.299Z,68.84
2022-08-16T04:34:07.190Z,68.88
2022-08-16T04:36:19.967Z,68.89
2022-08-16T04:38:26.271Z,68.90
2022-08-16T04:40:33.210Z,68.87
2022-08-16T04:42:39.952Z,68.89
2022-08-16T04:44:53.983Z,69.00
2022-08-16T04:47:21.777Z,68.99
2022-08-16T04:49:38.444Z,68.93
2022-08-16T04:51:53.608Z,68.83
2022-08-16T04:54:00.132Z,68.78
2022-08-16T04:56:11.282Z,68.45
2022-08-16T04:58:44.081Z,68.35
2022-08-16T05:00:45.064Z,68.06
2022-08-16T05:02:58.915Z,67.86
2022-08-16T05:05:08.326Z,67.90
2022-08-16T05:07:22.309Z,67.97
2022-08-16T05:09:39.785Z,67.44
2022-08-16T05:11:50.248Z,67.44
2022-08-16T05:13:56.222Z,67.42
2022-08-16T05:16:21.430Z,67.60
2022-08-16T05:18:33.879Z,67.74
2022-08-16T05:20:54.244Z,67.75
2022-08-16T05:23:04.283Z,67.53
2022-08-16T05:25:15.868Z,66.95
2022-08-16T05:27:26.462Z,66.74
2022-08-16T05:30:00.013Z,66.90
2022-08-16T05:32:04.034Z,66.41
2022-08-16T05:34:29.102Z,66.39
2022-08-16T05:36:37.006Z,66.32
2022-08-16T05:38:43.779Z,65.70
2022-08-16T05:41:00.135Z,65.64
2022-08-16T05:43:12.453Z,65.05
2022-08-16T05:45:22.188Z,65.08
2022-08-16T05:47:43.247Z,64.92
2022-08-16T05:49:50.575Z,64.92
2022-08-16T05:51:57.043Z,64.40
2022-08-16T05:54:03.229Z,64.09
2022-08-16T05:56:09.487Z,63.65
2022-08-16T05:58:31.654Z,63.57
2022-08-16T06:00:38.427Z,63.29
2022-08-16T06:02:46.386Z,62.55
2022-08-16T06:05:21.753Z,62.58
2022-08-16T06:07:27.911Z,62.25
2022-08-16T06:09:44.740Z,62.17
2022-08-16T06:11:53.115Z,60.95
2022-08-16T06:13:58.764Z,60.53
2022-08-16T06:16:27.097Z,59.76
2022-08-16T06:18:36.227Z,59.06
2022-08-16T06:20:55.401Z,59.39
2022-08-16T06:23:03.597Z,59.94
2022-08-16T06:25:35.771Z,59.76
2022-08-16T06:27:42.357Z,59.99
2022-08-16T06:30:03.971Z,59.91
2022-08-16T06:32:11.687Z,60.18
2022-08-16T06:34:57.064Z,60.35
2022-08-16T06:37:01.038Z,60.44
2022-08-16T06:39:06.861Z,59.96
2022-08-16T06:41:27.839Z,59.92
2022-08-16T06:43:33.796Z,59.79
2022-08-16T06:45:43.738Z,59.76
2022-08-16T06:47:57.673Z,59.66
2022-08-16T06:50:09.060Z,59.67
2022-08-16T06:52:58.491Z,59.68
2022-08-16T06:54:57.715Z,59.07
2022-08-16T06:57:03.922Z,59.33
2022-08-16T06:59:10.392Z,59.00
2022-08-16T07:01:44.997Z,58.09
2022-08-16T07:03:55.082Z,58.20
2022-08-16T07:06:06.931Z,57.71
2022-08-16T07:08:20.762Z,57.42
2022-08-16T07:10:26.899Z,57.23
2022-08-16T07:12:36.579Z,57.18
2022-08-16T07:14:52.180Z,56.90
2022-08-16T07:16:59.123Z,56.79
2022-08-16T07:19:04.611Z,56.75
2022-08-16T07:21:17.569Z,56.09
2022-08-16T07:23:37.257Z,56.13
2022-08-16T07:25:47.084Z,56.29
2022-08-16T07:27:53.488Z,55.48
2022-08-16T07:30:02.286Z,55.67
2022-08-16T07:32:10.368Z,55.35
2022-08-16T07:34:15.602Z,55.38
2022-08-16T07:36:22.956Z,54.52
2022-08-16T07:38:33.882Z,54.62
2022-08-16T07:41:00.638Z,54.68
2022-08-16T07:43:06.416Z,54.38
2022-08-16T07:45:14.149Z,54.12
2022-08-16T07:47:31.667Z,53.85
2022-08-16T07:49:37.278Z,52.92
2022-08-16T07:52:02.279Z,52.78
2022-08-16T07:54:32.153Z,52.94
2022-08-16T07:56:46.275Z,52.50
2022-08-16T07:58:55.397Z,52.20
2022-08-16T08:01:01.752Z,51.47
2022-08-16T08:03:10.705Z,50.96
2022-08-16T08:05:16.944Z,50.88
2022-08-16T08:07:34.674Z,50.76
2022-08-16T08:09:43.793Z,50.14
2022-08-16T08:11:59.842Z,50.44
2022-08-16T08:14:29.853Z,49.63
2022-08-16T08:16:37.342Z,49.40
2022-08-16T08:18:50.199Z,49.32
2022-08-16T08:20:59.253Z,49.38
2022-08-16T08:23:08.943Z,48.58
2022-08-16T08:25:18.540Z,49.00
2022-08-16T08:27:24.370Z,48.30
2022-08-16T08:29:37.279Z,48.22
2022-08-16T08:31:45.641Z,48.06
2022-08-16T08:33:51.834Z,48.69
2022-08-16T08:36:00.702Z,47.86
2022-08-16T08:38:09.232Z,48.03
2022-08-16T08:40:19.288Z,47.65
2022-08-16T08:42:30.042Z,47.47
2022-08-16T08:44:37.590Z,47.49
2022-08-16T08:47:00.716Z,47.23
2022-08-16T08:49:09.446Z,46.55
2022-08-16T08:51:20.061Z,46.61
2022-08-16T08:53:34.298Z,45.97
2022-08-16T08:55:39.989Z,45.68
2022-08-16T08:57:48.103Z,45.04
2022-08-16T09:00:26.933Z,45.01
2022-08-16T09:02:36.616Z,44.84
2022-08-16T09:04:42.709Z,44.86
2022-08-16T09:06:54.024Z,44.95
2022-08-16T09:09:03.485Z,44.27
2022-08-16T09:11:09.696Z,44.19
2022-08-16T09:13:20.671Z,44.11
2022-08-16T09:15:32.619Z,43.96
2022-08-16T09:17:48.927Z,43.82
2022-08-16T09:19:59.415Z,43.51
2022-08-16T09:22:07.409Z,43.74
2022-08-16T09:24:51.849Z,43.96
2022-08-16T09:26:53.643Z,43.84
2022-08-16T09:29:16.112Z,44.21
2022-08-16T09:31:24.828Z,44.26
2022-08-16T09:33:32.476Z,44.50
2022-08-16T09:35:42.672Z,44.79
2022-08-16T09:37:47.828Z,45.08
2022-08-16T09:40:32.310Z,45.01
2022-08-16T09:42:55.951Z,45.20
2022-08-16T09:45:11.777Z,45.31
2022-08-16T09:47:23.442Z,44.91
2022-08-16T09:49:36.939Z,44.77
2022-08-16T09:51:42.469Z,44.37
2022-08-16T09:53:54.030Z,44.57
2022-08-16T09:56:04.786Z,43.84
2022-08-16T09:58:37.853Z,43.50
2022-08-16T10:00:44.100Z,43.35
2022-08-16T10:02:49.978Z,43.83
2022-08-16T10:04:57.063Z,43.04
2022-08-16T10:07:02.621Z,43.32
2022-08-16T10:09:18.581Z,42.62
2022-08-16T10:11:50.069Z,42.39
2022-08-16T10:13:55.883Z,42.14
2022-08-16T10:16:00.738Z,42.02
2022-08-16T10:18:41.265Z,41.80
2022-08-16T10:20:36.321Z,42.14
2022-08-16T10:22:42.711Z,41.88
2022-08-16T10:24:55.967Z,41.79
2022-08-16T10:27:25.353Z,41.56
2022-08-16T10:30:00.708Z,41.68
2022-08-16T10:31:58.608Z,41.76
2022-08-16T10:34:04.737Z,41.08
2022-08-16T10:36:38.609Z,40.56
2022-08-16T10:38:44.809Z,41.22
2022-08-16T10:40:49.728Z,40.55
2022-08-16T10:42:59.151Z,40.04
2022-08-16T10:45:05.385Z,39.86
2022-08-16T10:47:10.297Z,39.78
2022-08-16T10:49:18.183Z,39.42
2022-08-16T10:51:27.842Z,38.74
2022-08-16T10:53:40.701Z,38.87
2022-08-16T10:55:45.803Z,38.78
2022-08-16T10:57:51.878Z,38.40
2022-08-16T10:59:59.277Z,38.38
2022-08-16T11:09:25.262Z,37.79
2022-08-16T11:11:33.859Z,38.27
2022-08-16T11:18:48.936Z,39.13
2022-08-16T11:20:59.598Z,38.81
2022-08-16T11:23:04.468Z,38.87
2022-08-16T11:25:12.384Z,38.91
2022-08-16T11:27:23.323Z,38.52
2022-08-16T11:29:28.744Z,38.66
2022-08-16T11:31:36.064Z,38.34
2022-08-16T11:33:58.629Z,38.57
2022-08-16T11:38:51.637Z,38.36
2022-08-16T11:40:56.924Z,38.28
2022-08-16T11:43:04.775Z,36.86
2022-08-16T11:45:11.217Z,36.85
2022-08-16T11:47:19.435Z,35.80
2022-08-16T11:49:24.358Z,35.51
2022-08-16T11:51:28.968Z,35.19
2022-08-16T11:53:36.017Z,35.55
2022-08-16T11:55:43.989Z,35.05
2022-08-16T11:57:49.455Z,35.17
2022-08-16T11:59:56.750Z,34.97
2022-08-16T12:02:04.404Z,34.24
2022-08-16T12:04:30.228Z,33.63
2022-08-16T12:06:35.148Z,33.45
2022-08-16T12:08:41.760Z,33.29
2022-08-16T12:10:47.620Z,32.80
2022-08-16T12:12:52.237Z,33.13
2022-08-16T12:14:59.854Z,32.62
2022-08-16T12:17:08.281Z,32.02
2022-08-16T12:19:13.780Z,31.70
2022-08-16T12:21:21.621Z,30.94
2022-08-16T12:23:27.584Z,31.01
2022-08-16T12:25:37.929Z,30.73
2022-08-16T12:27:44.563Z,30.09
2022-08-16T12:29:52.157Z,30.25
2022-08-16T12:32:01.510Z,30.48
2022-08-16T12:34:28.886Z,30.61
2022-08-16T12:36:39.374Z,30.41
2022-08-16T12:38:48.943Z,30.49
2022-08-16T12:40:55.603Z,30.28
2022-08-16T12:43:04.317Z,30.52
2022-08-16T12:45:14.462Z,30.32
2022-08-16T12:47:32.838Z,30.30
2022-08-16T12:49:41.992Z,30.20
2022-08-16T12:51:59.855Z,30.40
2022-08-16T12:54:09.509Z,30.56
2022-08-16T12:56:15.624Z,30.47
2022-08-16T12:58:50.012Z,30.78
2022-08-16T13:00:49.750Z,30.67
2022-08-16T13:02:54.638Z,31.07
2022-08-16T13:04:59.228Z,31.25
2022-08-16T13:07:08.640Z,31.08
2022-08-16T13:09:26.045Z,31.15
2022-08-16T13:11:41.509Z,30.85
2022-08-16T13:13:54.998Z,30.86
2022-08-16T13:16:05.704Z,31.23
2022-08-16T13:18:27.232Z,30.81
2022-08-16T13:20:39.295Z,31.14
2022-08-16T13:22:49.784Z,31.30
2022-08-16T13:24:55.483Z,31.33
2022-08-16T13:27:01.272Z,30.70
2022-08-16T13:29:05.998Z,31.01
2022-08-16T13:31:12.250Z,31.18
2022-08-16T13:33:24.761Z,31.12
2022-08-16T13:35:35.076Z,31.25
2022-08-16T13:37:41.719Z,31.53
2022-08-16T13:39:49.408Z,31.29
2022-08-16T13:41:55.143Z,31.15
2022-08-16T13:44:00.574Z,31.14
2022-08-16T13:46:05.634Z,30.76
2022-08-16T13:48:11.098Z,30.58
2022-08-16T13:50:31.197Z,30.09
2022-08-16T13:52:53.563Z,29.98
2022-08-16T13:55:04.194Z,29.27
2022-08-16T13:57:11.518Z,28.98
2022-08-16T13:59:20.838Z,29.29
2022-08-16T14:01:26.332Z,29.43
2022-08-16T14:03:31.919Z,29.22
2022-08-16T14:05:39.325Z,29.04
2022-08-16T14:07:43.926Z,27.62
2022-08-16T14:09:55.779Z,27.75
2022-08-16T14:12:17.558Z,27.91
2022-08-16T14:14:28.631Z,27.79
2022-08-16T14:16:34.838Z,28.25
2022-08-16T14:18:40.208Z,27.79
2022-08-16T14:20:48.579Z,27.85
2022-08-16T14:22:58.246Z,28.14
2022-08-16T14:25:07.277Z,28.27
2022-08-16T14:27:18.793Z,28.44
2022-08-16T14:29:26.258Z,28.45
2022-08-16T14:31:39.741Z,28.49
2022-08-16T14:33:45.797Z,28.94
2022-08-16T14:35:50.974Z,28.57
2022-08-16T14:37:56.914Z,28.49
2022-08-16T14:40:03.317Z,28.57
2022-08-16T14:42:10.672Z,28.24
2022-08-16T14:44:21.133Z,28.10
2022-08-16T14:46:26.359Z,27.16
2022-08-16T14:48:31.353Z,27.59
2022-08-16T14:50:37.256Z,27.89
2022-08-16T14:52:58.019Z,27.26
2022-08-16T14:55:03.054Z,27.85
2022-08-16T14:57:09.049Z,28.08
2022-08-16T14:59:13.892Z,27.87
2022-08-16T15:01:22.860Z,28.40
2022-08-16T15:03:28.217Z,28.15
2022-08-16T15:05:39.815Z,27.73
2022-08-16T15:07:45.840Z,27.78
2022-08-16T15:10:00.717Z,27.90
2022-08-16T15:12:26.132Z,28.10
2022-08-16T15:14:32.075Z,28.31
2022-08-16T15:16:39.306Z,28.31
2022-08-16T15:18:50.875Z,28.54
2022-08-16T15:20:55.560Z,28.29
2022-08-16T15:23:02.444Z,27.85
2022-08-16T15:25:10.925Z,27.93
2022-08-16T15:27:15.789Z,27.16
2022-08-16T15:29:20.377Z,27.05
2022-08-16T15:31:29.039Z,27.37
2022-08-16T15:33:42.706Z,27.27
2022-08-16T15:35:52.655Z,27.74
2022-08-16T15:38:02.691Z,27.44
2022-08-16T15:40:32.510Z,27.25
2022-08-16T15:42:40.519Z,26.85
2022-08-16T15:44:54.740Z,26.72
2022-08-16T15:47:02.654Z,26.49
2022-08-16T15:49:12.082Z,26.37
2022-08-16T15:51:17.347Z,26.55
2022-08-16T15:53:27.383Z,26.63
2022-08-16T15:55:35.836Z,26.96
2022-08-16T15:57:41.586Z,26.58
2022-08-16T15:59:52.657Z,26.86
2022-08-16T16:02:00.843Z,26.82
2022-08-16T16:04:06.202Z,27.03
2022-08-16T16:06:17.090Z,26.59
2022-08-16T16:08:27.590Z,26.31
2022-08-16T16:10:33.834Z,26.44
2022-08-16T16:12:53.313Z,25.86
2022-08-16T16:14:59.542Z,25.22
2022-08-16T16:17:06.333Z,25.25
2022-08-16T16:19:11.637Z,25.06
2022-08-16T16:21:20.447Z,25.27
2022-08-16T16:23:29.976Z,25.67
2022-08-16T16:25:36.311Z,25.43
2022-08-16T16:27:41.307Z,25.65
2022-08-16T16:29:57.786Z,25.67
2022-08-16T16:32:08.039Z,26.27
2022-08-16T16:34:13.565Z,26.36
2022-08-16T16:36:26.858Z,26.75
2022-08-16T16:38:35.027Z,27.04
2022-08-16T16:40:46.437Z,27.33
2022-08-16T16:43:00.103Z,27.48
2022-08-16T16:45:05.726Z,27.95
2022-08-16T16:47:15.246Z,27.78
2022-08-16T16:49:19.871Z,27.84
2022-08-16T16:51:27.900Z,28.33
2022-08-16T16:53:37.793Z,28.59
2022-08-16T16:55:43.970Z,28.72
2022-08-16T16:58:05.533Z,28.36
2022-08-16T17:00:30.327Z,28.82
2022-08-16T17:02:49.719Z,28.75
2022-08-16T17:04:58.802Z,29.01
2022-08-16T17:07:10.479Z,29.01
2022-08-16T17:09:16.570Z,29.15
2022-08-16T17:11:21.591Z,29.04
2022-08-16T17:13:27.865Z,29.02
2022-08-16T17:15:36.271Z,29.56
2022-08-16T17:18:00.434Z,29.68
2022-08-16T17:20:12.741Z,29.53
2022-08-16T17:22:23.513Z,29.72
2022-08-16T17:24:31.407Z,29.88
2022-08-16T17:26:48.999Z,29.75
2022-08-16T17:28:58.278Z,29.99
2022-08-16T17:31:07.255Z,29.84
2022-08-16T17:33:13.378Z,29.99
2022-08-16T17:35:20.871Z,29.79
2022-08-16T17:37:42.212Z,29.97
2022-08-16T17:40:00.214Z,30.26
2022-08-16T17:42:15.864Z,30.61
2022-08-16T17:44:20.793Z,30.50
2022-08-16T17:46:51.579Z,30.85
2022-08-16T17:48:50.694Z,30.99
2022-08-16T17:50:56.979Z,31.23
2022-08-16T17:53:04.589Z,31.37
2022-08-16T17:55:12.330Z,31.26
2022-08-16T17:57:17.267Z,31.37
2022-08-16T17:59:23.081Z,31.28
2022-08-16T18:01:30.296Z,31.62
2022-08-16T18:03:40.836Z,31.20
2022-08-16T18:06:03.190Z,31.45
2022-08-16T18:08:10.632Z,31.66
2022-08-16T18:10:32.665Z,31.46
2022-08-16T18:12:55.535Z,31.89
2022-08-16T18:15:01.107Z,31.67
2022-08-16T18:17:05.986Z,31.52
2022-08-16T18:19:10.629Z,33.37
2022-08-16T18:21:29.801Z,32.56
2022-08-16T18:23:37.914Z,33.78
2022-08-16T18:25:44.059Z,33.10
2022-08-16T18:27:49.433Z,33.65
2022-08-16T18:29:54.342Z,33.22
2022-08-16T18:31:59.003Z,34.03
2022-08-16T18:34:04.057Z,33.67
2022-08-16T18:36:19.965Z,33.79
2022-08-16T18:38:26.290Z,34.12
2022-08-16T18:40:34.109Z,34.16
2022-08-16T18:42:39.164Z,34.44
2022-08-16T18:44:45.722Z,34.61
2022-08-16T18:46:51.600Z,34.26
2022-08-16T18:48:56.508Z,34.12
2022-08-16T18:51:05.345Z,34.06
2022-08-16T18:53:15.885Z,34.50
2022-08-16T18:55:21.312Z,34.52
2022-08-16T18:57:29.548Z,34.63
2022-08-16T18:59:34.489Z,34.57
2022-08-16T19:01:39.253Z,34.82
2022-08-16T19:03:44.322Z,35.07
2022-08-16T19:05:52.883Z,35.54
2022-08-16T19:07:57.881Z,35.86
2022-08-16T19:10:03.466Z,36.01
2022-08-16T19:12:08.899Z,36.04
2022-08-16T19:14:16.574Z,35.84
2022-08-16T19:16:21.832Z,36.27
2022-08-16T19:18:27.908Z,36.09
2022-08-16T19:20:33.088Z,36.14
2022-08-16T19:23:01.696Z,36.36
2022-08-16T19:25:03.339Z,36.22
2022-08-16T19:27:10.817Z,36.27
2022-08-16T19:29:18.281Z,36.44
2022-08-16T19:31:26.354Z,36.58
2022-08-16T19:33:31.830Z,36.61
2022-08-16T19:35:36.764Z,36.65
2022-08-16T19:37:46.554Z,36.66
2022-08-16T19:39:51.862Z,36.77
2022-08-16T19:41:56.478Z,37.43
2022-08-16T19:44:01.456Z,37.28
2022-08-16T19:46:08.877Z,37.72
2022-08-16T19:48:13.716Z,37.69
2022-08-16T19:50:19.854Z,38.11
2022-08-16T19:52:40.645Z,38.26
2022-08-16T19:54:45.295Z,38.47
2022-08-16T19:56:50.190Z,38.45
2022-08-16T20:01:25.521Z,38.78
2022-08-16T20:03:30.659Z,38.78
2022-08-16T20:05:37.046Z,38.77
2022-08-16T20:07:42.025Z,38.81
2022-08-16T20:09:47.754Z,38.85
2022-08-16T20:11:56.040Z,39.19
2022-08-16T20:14:01.180Z,38.82
2022-08-16T20:16:06.519Z,39.19
2022-08-16T20:18:25.058Z,39.18
2022-08-16T20:20:31.436Z,39.18
2022-08-16T20:22:53.103Z,39.68
2022-08-16T20:24:59.167Z,39.88
2022-08-16T20:27:03.826Z,39.86
2022-08-16T20:29:08.644Z,39.89
2022-08-16T20:31:14.089Z,40.00
2022-08-16T20:33:21.862Z,40.13
2022-08-16T20:35:28.866Z,40.00
2022-08-16T20:37:35.704Z,39.93
2022-08-16T20:39:44.251Z,40.34
2022-08-16T20:41:49.282Z,40.89
2022-08-16T20:43:54.956Z,41.15
2022-08-16T20:46:00.075Z,41.32
2022-08-16T20:48:05.228Z,41.69
2022-08-16T20:50:12.813Z,42.04
2022-08-16T20:52:21.573Z,41.71
2022-08-16T20:54:26.643Z,41.78
2022-08-16T20:56:31.788Z,41.87
2022-08-16T20:58:36.354Z,41.95
2022-08-16T21:00:41.339Z,42.16
2022-08-16T21:02:46.139Z,42.49
2022-08-16T21:04:51.073Z,42.11
2022-08-16T21:06:59.394Z,42.32
2022-08-16T21:09:05.804Z,42.23
2022-08-16T21:11:10.668Z,41.96
2022-08-16T21:13:17.621Z,42.19
2022-08-16T21:15:22.288Z,42.43
2022-08-16T21:17:28.189Z,42.29
2022-08-16T21:19:33.684Z,42.45
2022-08-16T21:21:38.701Z,42.23
2022-08-16T21:23:46.175Z,42.39
2022-08-16T21:25:54.812Z,42.39
2022-08-16T21:28:40.878Z,42.34
2022-08-16T21:30:32.325Z,42.96
2022-08-16T21:32:37.554Z,42.79
2022-08-16T21:34:42.847Z,42.74
2022-08-16T21:36:47.712Z,43.12
2022-08-16T21:38:55.240Z,43.19
2022-08-16T21:41:00.321Z,43.44
2022-08-16T21:43:09.704Z,43.11
2022-08-16T21:45:16.825Z,43.18
2022-08-16T21:47:21.655Z,43.12
2022-08-16T21:49:26.539Z,43.17
2022-08-16T21:51:31.463Z,43.31
2022-08-16T21:53:37.792Z,43.58
2022-08-16T21:55:47.703Z,43.96
2022-08-16T21:57:52.554Z,43.72
2022-08-16T21:59:58.403Z,43.59
2022-08-16T22:02:03.263Z,43.63
2022-08-16T22:04:36.921Z,44.04
2022-08-16T22:06:34.690Z,43.82
2022-08-16T22:08:50.261Z,44.20
2022-08-16T22:11:06.632Z,44.14
2022-08-16T22:13:19.189Z,44.30
2022-08-16T22:15:27.023Z,44.66
2022-08-16T22:17:31.891Z,44.62
2022-08-16T22:19:36.709Z,43.99
2022-08-16T22:21:41.604Z,44.20
2022-08-16T22:23:56.884Z,44.63
2022-08-16T22:26:05.800Z,44.31
2022-08-16T22:28:11.094Z,44.52
2022-08-16T22:30:18.013Z,45.21
2022-08-16T22:32:24.181Z,44.93
2022-08-16T22:34:29.166Z,45.16
2022-08-16T22:36:36.226Z,45.19
2022-08-16T22:38:50.477Z,45.27
2022-08-16T22:41:02.025Z,45.49
2022-08-16T22:43:09.885Z,45.62
2022-08-16T22:45:17.654Z,46.01
2022-08-16T22:47:22.620Z,45.84
2022-08-16T22:49:30.280Z,46.70
2022-08-16T22:51:35.428Z,46.88
2022-08-16T22:53:40.090Z,46.95
2022-08-16T22:55:45.250Z,47.11
2022-08-16T22:57:50.377Z,46.91
2022-08-16T22:59:57.830Z,46.88
2022-08-16T23:02:05.734Z,46.78
2022-08-16T23:04:10.727Z,47.10
2022-08-16T23:06:16.520Z,47.61
2022-08-16T23:08:38.338Z,47.56
2022-08-16T23:10:44.465Z,47.76
2022-08-16T23:12:53.169Z,47.47
2022-08-16T23:15:04.694Z,47.94
2022-08-16T23:17:11.709Z,48.00
2022-08-16T23:19:18.332Z,48.15
2022-08-16T23:21:24.048Z,47.87
2022-08-16T23:23:32.437Z,48.43
2022-08-16T23:25:38.969Z,48.56
2022-08-16T23:27:43.975Z,48.67
2022-08-16T23:29:48.568Z,48.64
2022-08-16T23:31:58.784Z,48.89
2022-08-16T23:34:03.897Z,48.82
2022-08-16T23:36:09.723Z,49.02
2022-08-16T23:38:38.029Z,48.90
2022-08-16T23:40:40.923Z,48.66
2022-08-16T23:42:56.928Z,48.22
2022-08-16T23:45:01.850Z,48.60
2022-08-16T23:47:09.714Z,48.55
2022-08-16T23:49:59.360Z,48.28
2022-08-16T23:51:40.091Z,48.76
2022-08-16T23:53:47.220Z,48.98
2022-08-16T23:55:54.469Z,49.09
2022-08-16T23:58:00.408Z,48.67
